createdAt,value
2017-08-19T00:02:14.955Z,2.40
2017-08-19T00:04:42.451Z,3.13
2017-08-19T00:07:09.914Z,2.80
2017-08-19T00:09:37.365Z,2.60
2017-08-19T00:12:04.846Z,3.03
2017-08-19T00:14:32.314Z,2.80
2017-08-19T00:16:59.766Z,3.03
2017-08-19T00:19:27.250Z,3.03
2017-08-19T00:21:54.752Z,3.47
2017-08-19T00:24:22.193Z,2.90
2017-08-19T00:26:49.669Z,2.80
2017-08-19T00:29:17.120Z,2.80
2017-08-19T00:31:44.593Z,2.77
2017-08-19T00:34:12.070Z,2.57
2017-08-19T00:36:39.537Z,2.73
2017-08-19T00:39:06.983Z,2.80
2017-08-19T00:41:34.440Z,3.10
2017-08-19T00:44:01.955Z,2.93
2017-08-19T00:46:29.417Z,2.67
2017-08-19T00:48:56.876Z,2.60
2017-08-19T00:51:24.323Z,2.90
2017-08-19T00:53:51.765Z,2.87
2017-08-19T00:56:19.231Z,2.93
2017-08-19T00:58:46.687Z,2.57
2017-08-19T01:01:14.166Z,2.50
2017-08-19T01:03:41.641Z,2.80
2017-08-19T01:06:09.091Z,2.70
2017-08-19T01:08:36.545Z,2.60
2017-08-19T01:11:03.990Z,3.10
2017-08-19T01:13:31.446Z,3.00
2017-08-19T01:15:58.894Z,2.90
2017-08-19T01:18:26.346Z,2.80
2017-08-19T01:20:53.806Z,2.57
2017-08-19T01:23:21.289Z,2.90
2017-08-19T01:28:52.169Z,2.70
2017-08-19T01:31:19.636Z,3.00
2017-08-19T01:33:47.086Z,3.10
2017-08-19T01:36:14.546Z,2.60
2017-08-19T01:38:41.997Z,2.73
2017-08-19T01:41:09.449Z,2.77
2017-08-19T01:43:36.898Z,3.10
2017-08-19T01:46:04.365Z,2.87
2017-08-19T01:48:31.832Z,2.50
2017-08-19T01:50:59.277Z,2.67
2017-08-19T01:53:26.729Z,2.80
2017-08-19T01:55:54.181Z,2.77
2017-08-19T02:00:55.526Z,2.90
2017-08-19T02:03:22.970Z,2.50
2017-08-19T02:05:50.431Z,2.87
2017-08-19T02:08:17.873Z,3.00
2017-08-19T02:10:45.334Z,2.73
2017-08-19T02:13:12.789Z,2.60
2017-08-19T02:15:40.254Z,2.80
2017-08-19T02:18:07.718Z,2.97
2017-08-19T02:20:35.202Z,3.00
2017-08-19T02:23:02.665Z,2.43
2017-08-19T02:25:30.121Z,2.60
2017-08-19T02:27:57.559Z,3.00
2017-08-19T02:30:25.057Z,2.90
2017-08-19T02:32:52.494Z,2.67
2017-08-19T02:35:19.935Z,2.60
2017-08-19T02:37:47.387Z,2.73
2017-08-19T02:40:14.833Z,2.40
2017-08-19T02:42:42.295Z,2.80
2017-08-19T02:45:09.782Z,2.40
2017-08-19T02:47:37.247Z,2.40
2017-08-19T02:50:04.702Z,2.70
2017-08-19T02:52:32.176Z,2.40
2017-08-19T02:54:59.649Z,2.83
2017-08-19T02:57:27.125Z,2.60
2017-08-19T02:59:54.619Z,2.63
2017-08-19T03:02:22.069Z,2.40
2017-08-19T03:04:49.519Z,2.20
2017-08-19T03:07:16.973Z,2.50
2017-08-19T03:09:44.426Z,2.77
2017-08-19T03:12:11.882Z,2.30
2017-08-19T03:14:39.342Z,2.40
2017-08-19T03:17:06.837Z,2.50
2017-08-19T03:19:34.276Z,2.30
2017-08-19T03:22:01.734Z,2.43
2017-08-19T03:24:29.181Z,2.30
2017-08-19T03:26:56.652Z,2.10
2017-08-19T03:29:24.110Z,2.53
2017-08-19T03:31:51.554Z,2.53
2017-08-19T03:34:19.002Z,2.80
2017-08-19T03:36:46.472Z,2.40
2017-08-19T03:39:13.933Z,2.50
2017-08-19T03:41:41.417Z,2.30
2017-08-19T03:44:09.638Z,2.53
2017-08-19T03:46:37.098Z,2.50
2017-08-19T03:49:04.561Z,2.33
2017-08-19T03:51:32.009Z,2.37
2017-08-19T03:53:59.470Z,2.50
2017-08-19T03:56:26.925Z,2.23
2017-08-19T03:58:54.382Z,2.60
2017-08-19T04:01:21.850Z,2.07
2017-08-19T04:03:49.289Z,2.53
2017-08-19T04:06:16.745Z,2.60
2017-08-19T04:08:44.186Z,2.27
2017-08-19T04:11:11.689Z,2.40
2017-08-19T04:13:39.157Z,2.40
2017-08-19T04:16:06.614Z,2.23
2017-08-19T04:18:34.057Z,2.30
2017-08-19T04:21:01.511Z,2.20
2017-08-19T04:23:28.982Z,2.60
2017-08-19T04:25:56.461Z,2.00
2017-08-19T04:28:23.923Z,2.70
2017-08-19T04:30:51.398Z,2.10
2017-08-19T04:33:18.858Z,2.00
2017-08-19T04:35:46.316Z,2.40
2017-08-19T04:38:13.801Z,2.17
2017-08-19T04:40:41.245Z,2.07
2017-08-19T04:43:08.717Z,1.67
2017-08-19T04:45:36.164Z,2.23
2017-08-19T04:48:03.621Z,2.00
2017-08-19T04:50:31.061Z,2.50
2017-08-19T04:52:58.517Z,2.30
2017-08-19T04:55:25.973Z,2.07
2017-08-19T04:57:53.426Z,2.40
2017-08-19T05:00:20.870Z,2.23
2017-08-19T05:02:48.337Z,2.43
2017-08-19T05:05:15.782Z,2.27
2017-08-19T05:07:43.225Z,2.23
2017-08-19T05:10:10.707Z,2.30
2017-08-19T05:12:38.148Z,2.20
2017-08-19T05:15:05.597Z,2.07
2017-08-19T05:17:33.053Z,2.00
2017-08-19T05:20:00.505Z,1.90
2017-08-19T05:22:27.956Z,2.00
2017-08-19T05:24:55.426Z,2.23
2017-08-19T05:27:22.879Z,2.07
2017-08-19T05:29:50.334Z,2.60
2017-08-19T05:32:17.773Z,2.10
2017-08-19T05:34:45.234Z,2.17
2017-08-19T05:37:12.699Z,2.10
2017-08-19T05:39:40.157Z,2.30
2017-08-19T05:42:07.614Z,2.17
2017-08-19T05:44:35.057Z,2.60
2017-08-19T05:47:02.545Z,1.80
2017-08-19T05:49:29.982Z,2.00
2017-08-19T05:51:57.446Z,2.47
2017-08-19T05:54:24.898Z,2.17
2017-08-19T05:56:52.354Z,2.20
2017-08-19T05:59:19.797Z,2.20
2017-08-19T06:01:47.254Z,1.60
2017-08-19T06:04:14.729Z,2.53
2017-08-19T06:06:42.181Z,2.07
2017-08-19T06:09:09.634Z,1.83
2017-08-19T06:11:37.094Z,1.57
2017-08-19T06:14:04.544Z,2.53
2017-08-19T06:16:32.027Z,1.73
2017-08-19T06:18:59.501Z,2.40
2017-08-19T06:21:26.947Z,2.40
2017-08-19T06:23:54.405Z,2.13
2017-08-19T06:26:21.854Z,2.37
2017-08-19T06:28:49.314Z,1.90
2017-08-19T06:31:16.769Z,1.93
2017-08-19T06:33:44.217Z,1.77
2017-08-19T06:36:11.707Z,2.20
2017-08-19T06:38:39.182Z,1.97
2017-08-19T06:41:06.643Z,2.00
2017-08-19T06:43:34.133Z,1.97
2017-08-19T06:46:01.573Z,1.77
2017-08-19T06:48:29.044Z,2.20
2017-08-19T06:50:56.481Z,2.07
2017-08-19T06:53:23.938Z,1.83
2017-08-19T06:55:51.392Z,1.90
2017-08-19T06:58:18.863Z,2.00
2017-08-19T07:00:46.329Z,2.30
2017-08-19T07:03:13.776Z,2.37
2017-08-19T07:05:41.233Z,2.03
2017-08-19T07:08:08.678Z,1.90
2017-08-19T07:10:36.158Z,2.00
2017-08-19T07:13:03.586Z,1.80
2017-08-19T07:15:31.053Z,1.90
2017-08-19T07:17:58.527Z,1.97
2017-08-19T07:20:25.982Z,1.87
2017-08-19T07:22:53.440Z,2.07
2017-08-19T07:25:20.893Z,1.70
2017-08-19T07:27:48.350Z,1.83
2017-08-19T07:30:15.805Z,2.10
2017-08-19T07:32:43.281Z,2.43
2017-08-19T07:35:10.729Z,1.93
2017-08-19T07:37:38.198Z,2.10
2017-08-19T07:40:05.670Z,2.20
2017-08-19T07:42:33.140Z,2.37
2017-08-19T07:45:00.586Z,2.23
2017-08-19T07:47:28.045Z,2.07
2017-08-19T07:49:55.516Z,2.70
2017-08-19T07:52:22.995Z,2.50
2017-08-19T07:54:50.485Z,2.37
2017-08-19T07:57:17.938Z,2.43
2017-08-19T07:59:45.389Z,2.30
2017-08-19T08:02:12.850Z,2.30
2017-08-19T08:04:40.306Z,2.80
2017-08-19T08:07:07.761Z,2.37
2017-08-19T08:09:35.222Z,2.27
2017-08-19T08:12:02.677Z,2.30
2017-08-19T08:14:30.125Z,1.80
2017-08-19T08:16:57.582Z,2.20
2017-08-19T08:19:25.056Z,2.17
2017-08-19T08:21:52.518Z,2.40
2017-08-19T08:24:19.985Z,2.30
2017-08-19T08:26:47.433Z,2.00
2017-08-19T08:29:14.879Z,1.83
2017-08-19T08:31:42.383Z,2.03
2017-08-19T08:34:09.849Z,1.90
2017-08-19T08:36:37.302Z,2.10
2017-08-19T08:39:04.757Z,2.00
2017-08-19T08:41:32.235Z,2.10
2017-08-19T08:43:59.725Z,2.50
2017-08-19T08:46:27.178Z,2.10
2017-08-19T08:48:54.641Z,2.10
2017-08-19T08:51:22.090Z,2.03
2017-08-19T08:53:49.551Z,2.10
2017-08-19T08:56:16.994Z,2.03
2017-08-19T08:58:44.489Z,2.13
2017-08-19T09:01:11.958Z,2.10
2017-08-19T09:03:39.437Z,2.10
2017-08-19T09:06:06.881Z,2.20
2017-08-19T09:08:34.342Z,2.40
2017-08-19T09:11:01.790Z,2.20
2017-08-19T09:13:29.257Z,2.37
2017-08-19T09:15:56.715Z,2.20
2017-08-19T09:18:24.161Z,2.50
2017-08-19T09:20:51.626Z,1.80
2017-08-19T09:23:19.070Z,2.03
2017-08-19T09:25:46.569Z,1.90
2017-08-19T09:28:14.046Z,1.70
2017-08-19T09:30:41.518Z,2.23
2017-08-19T09:33:08.969Z,2.10
2017-08-19T09:35:36.454Z,1.97
2017-08-19T09:38:03.908Z,1.67
2017-08-19T09:40:31.350Z,1.80
2017-08-19T09:42:58.834Z,1.67
2017-08-19T09:45:26.303Z,1.80
2017-08-19T09:47:53.742Z,2.10
2017-08-19T09:50:21.231Z,2.10
2017-08-19T09:52:48.710Z,1.80
2017-08-19T09:55:16.149Z,1.97
2017-08-19T09:57:43.605Z,2.00
2017-08-19T10:00:11.052Z,2.17
2017-08-19T10:02:38.498Z,2.40
2017-08-19T10:05:05.950Z,1.87
2017-08-19T10:07:40.083Z,2.20
2017-08-19T10:10:07.525Z,2.63
2017-08-19T10:12:35.006Z,2.23
2017-08-19T10:15:02.471Z,2.20
2017-08-19T10:17:29.944Z,2.40
2017-08-19T10:19:57.386Z,2.30
2017-08-19T10:22:24.858Z,2.50
2017-08-19T10:24:52.314Z,1.90
2017-08-19T10:27:19.778Z,1.87
2017-08-19T10:29:47.226Z,2.10
2017-08-19T10:32:14.688Z,1.90
2017-08-19T10:34:42.151Z,2.07
2017-08-19T10:37:09.622Z,1.80
2017-08-19T10:39:37.083Z,2.07
2017-08-19T10:42:04.565Z,2.10
2017-08-19T10:44:32.259Z,2.20
2017-08-19T10:46:59.747Z,2.23
2017-08-19T10:49:27.234Z,1.80
2017-08-19T10:51:54.721Z,2.20
2017-08-19T10:54:22.185Z,1.90
2017-08-19T10:56:49.654Z,2.10
2017-08-19T10:59:17.109Z,1.80
2017-08-19T11:01:44.551Z,1.70
2017-08-19T11:04:12.026Z,2.20
2017-08-19T11:06:39.467Z,1.60
2017-08-19T11:09:06.946Z,1.67
2017-08-19T11:11:34.393Z,1.77
2017-08-19T11:14:01.837Z,1.90
2017-08-19T11:16:29.290Z,2.10
2017-08-19T11:18:56.742Z,1.90
2017-08-19T11:21:24.193Z,1.80
2017-08-19T11:23:51.649Z,1.50
2017-08-19T11:26:19.121Z,1.80
2017-08-19T11:28:46.602Z,1.53
2017-08-19T11:31:14.046Z,1.67
2017-08-19T11:33:41.521Z,2.07
2017-08-19T11:36:08.981Z,1.93
2017-08-19T11:38:36.434Z,1.67
2017-08-19T11:41:03.899Z,1.20
2017-08-19T11:43:31.351Z,1.47
2017-08-19T11:45:58.812Z,1.50
2017-08-19T11:48:26.256Z,1.40
2017-08-19T11:50:53.730Z,1.30
2017-08-19T11:53:21.210Z,1.63
2017-08-19T11:55:48.683Z,1.30
2017-08-19T11:58:16.161Z,1.50
2017-08-19T12:00:43.614Z,1.37
2017-08-19T12:03:11.069Z,1.57
2017-08-19T12:05:38.521Z,1.27
2017-08-19T12:08:05.968Z,1.30
2017-08-19T12:10:33.422Z,1.13
2017-08-19T12:13:00.868Z,1.33
2017-08-19T12:15:28.339Z,1.20
2017-08-19T12:17:55.794Z,1.30
2017-08-19T12:20:23.267Z,1.37
2017-08-19T12:22:50.765Z,1.20
2017-08-19T12:25:18.237Z,1.20
2017-08-19T12:27:45.726Z,1.10
2017-08-19T12:30:13.185Z,1.10
2017-08-19T12:32:40.638Z,1.30
2017-08-19T12:35:08.098Z,1.30
2017-08-19T12:37:35.557Z,1.37
2017-08-19T12:40:03.033Z,1.30
2017-08-19T12:42:30.501Z,1.30
2017-08-19T12:44:57.941Z,1.30
2017-08-19T12:47:25.393Z,1.20
2017-08-19T12:49:52.844Z,1.37
2017-08-19T12:52:20.309Z,1.33
2017-08-19T12:54:47.762Z,1.33
2017-08-19T12:57:15.213Z,1.30
2017-08-19T12:59:42.685Z,1.40
2017-08-19T13:02:10.169Z,1.43
2017-08-19T13:04:37.627Z,1.40
2017-08-19T13:07:05.069Z,1.70
2017-08-19T13:09:32.549Z,1.50
2017-08-19T13:12:00.006Z,1.47
2017-08-19T13:14:27.469Z,1.53
2017-08-19T13:16:54.930Z,1.47
2017-08-19T13:19:22.384Z,1.77
2017-08-19T13:21:49.834Z,1.70
2017-08-19T13:24:17.292Z,1.57
2017-08-19T13:26:44.739Z,1.70
2017-08-19T13:29:12.222Z,1.50
2017-08-19T13:31:39.663Z,1.40
2017-08-19T13:34:07.118Z,1.70
2017-08-19T13:36:34.561Z,1.63
2017-08-19T13:39:02.039Z,1.40
2017-08-19T13:41:29.481Z,1.60
2017-08-19T13:43:56.938Z,1.30
2017-08-19T13:46:24.402Z,1.37
2017-08-19T13:48:51.846Z,1.60
2017-08-19T13:51:19.287Z,1.60
2017-08-19T13:53:46.774Z,1.40
2017-08-19T13:56:14.223Z,1.30
2017-08-19T13:58:41.691Z,1.30
2017-08-19T14:01:09.177Z,1.37
2017-08-19T14:03:36.633Z,1.17
2017-08-19T14:06:04.101Z,1.10
2017-08-19T14:08:31.573Z,1.17
2017-08-19T14:10:59.026Z,0.90
2017-08-19T14:13:26.478Z,1.10
2017-08-19T14:15:53.961Z,1.17
2017-08-19T14:18:21.459Z,1.00
2017-08-19T14:20:48.924Z,1.00
2017-08-19T14:23:16.388Z,1.00
2017-08-19T14:25:43.842Z,1.20
2017-08-19T14:28:11.301Z,1.07
2017-08-19T14:30:38.777Z,1.00
2017-08-19T14:33:06.248Z,1.23
2017-08-19T14:35:33.702Z,1.10
2017-08-19T14:38:01.181Z,1.00
2017-08-19T14:40:28.641Z,1.30
2017-08-19T14:42:56.088Z,1.10
2017-08-19T14:45:23.546Z,1.40
2017-08-19T14:47:51.046Z,1.07
2017-08-19T14:50:18.509Z,1.10
2017-08-19T14:52:45.983Z,1.13
2017-08-19T14:55:13.454Z,1.17
2017-08-19T14:57:40.901Z,0.90
2017-08-19T15:00:08.377Z,1.10
2017-08-19T15:02:35.813Z,1.30
2017-08-19T15:05:03.261Z,1.23
2017-08-19T15:07:30.724Z,1.30
2017-08-19T15:09:58.186Z,1.10
2017-08-19T15:12:25.649Z,1.13
2017-08-19T15:14:53.133Z,1.30
2017-08-19T15:17:20.595Z,1.30
2017-08-19T15:19:48.043Z,1.37
2017-08-19T15:22:15.508Z,1.20
2017-08-19T15:24:42.948Z,1.40
2017-08-19T15:27:10.414Z,1.30
2017-08-19T15:29:37.859Z,1.10
2017-08-19T15:32:05.322Z,1.30
2017-08-19T15:34:32.791Z,1.40
2017-08-19T15:37:00.238Z,1.40
2017-08-19T15:39:27.705Z,1.10
2017-08-19T15:41:55.178Z,1.67
2017-08-19T15:44:22.629Z,1.20
2017-08-19T15:46:50.122Z,1.30
2017-08-19T15:49:17.589Z,1.40
2017-08-19T15:51:45.037Z,1.20
2017-08-19T15:54:12.494Z,1.50
2017-08-19T15:56:39.955Z,1.40
2017-08-19T15:59:07.416Z,1.23
2017-08-19T16:01:34.865Z,1.40
2017-08-19T16:04:02.351Z,1.47
2017-08-19T16:06:29.814Z,1.53
2017-08-19T16:08:57.271Z,1.27
2017-08-19T16:11:24.718Z,1.80
2017-08-19T16:13:52.194Z,1.60
2017-08-19T16:16:19.655Z,1.30
2017-08-19T16:18:47.130Z,1.40
2017-08-19T16:21:14.595Z,1.60
2017-08-19T16:23:42.070Z,1.63
2017-08-19T16:26:09.540Z,1.17
2017-08-19T16:28:36.989Z,1.60
2017-08-19T16:31:04.447Z,1.40
2017-08-19T16:33:31.928Z,1.30
2017-08-19T16:35:59.385Z,1.40
2017-08-19T16:38:26.829Z,1.40
2017-08-19T16:40:54.283Z,1.40
2017-08-19T16:43:21.754Z,1.20
2017-08-19T16:45:49.206Z,1.30
2017-08-19T16:48:16.691Z,1.37
2017-08-19T16:50:44.178Z,1.40
2017-08-19T16:53:11.640Z,1.33
2017-08-19T16:55:39.098Z,1.40
2017-08-19T16:58:06.572Z,1.23
2017-08-19T17:00:34.060Z,1.43
2017-08-19T17:03:01.526Z,1.80
2017-08-19T17:05:28.977Z,1.20
2017-08-19T17:07:56.431Z,1.30
2017-08-19T17:10:23.873Z,1.23
2017-08-19T17:12:51.333Z,1.30
2017-08-19T17:15:18.804Z,1.40
2017-08-19T17:17:46.289Z,1.40
2017-08-19T17:20:13.743Z,1.50
2017-08-19T17:22:41.198Z,1.33
2017-08-19T17:25:08.676Z,1.70
2017-08-19T17:27:36.136Z,1.40
2017-08-19T17:30:03.580Z,1.30
2017-08-19T17:32:31.034Z,1.27
2017-08-19T17:34:58.491Z,1.47
2017-08-19T17:37:25.982Z,1.40
2017-08-19T17:39:53.425Z,1.53
2017-08-19T17:42:20.911Z,1.40
2017-08-19T17:44:48.358Z,1.30
2017-08-19T17:47:15.801Z,1.40
2017-08-19T17:49:43.245Z,1.57
2017-08-19T17:52:10.702Z,1.60
2017-08-19T17:54:38.157Z,1.37
2017-08-19T17:57:05.634Z,1.43
2017-08-19T17:59:33.089Z,1.50
2017-08-19T18:02:00.550Z,1.50
2017-08-19T18:04:27.993Z,1.40
2017-08-19T18:06:55.467Z,1.27
2017-08-19T18:09:22.965Z,1.33
2017-08-19T18:11:50.414Z,1.60
2017-08-19T18:14:17.868Z,1.23
2017-08-19T18:16:45.321Z,1.40
2017-08-19T18:19:12.777Z,1.37
2017-08-19T18:21:40.256Z,1.43
2017-08-19T18:24:07.714Z,1.40
2017-08-19T18:26:35.157Z,1.63
2017-08-19T18:29:02.614Z,1.43
2017-08-19T18:31:30.067Z,1.57
2017-08-19T18:33:57.521Z,1.50
2017-08-19T18:36:24.975Z,1.73
2017-08-19T18:38:52.426Z,1.50
2017-08-19T18:41:19.874Z,1.20
2017-08-19T18:43:47.380Z,1.50
2017-08-19T18:46:14.832Z,1.40
2017-08-19T18:48:42.278Z,1.40
2017-08-19T18:51:09.742Z,1.53
2017-08-19T18:53:37.194Z,1.47
2017-08-19T18:56:04.646Z,1.40
2017-08-19T18:58:32.102Z,1.47
2017-08-19T19:00:59.555Z,1.50
2017-08-19T19:03:27.009Z,1.50
2017-08-19T19:05:54.505Z,1.50
2017-08-19T19:08:21.954Z,1.63
2017-08-19T19:10:49.420Z,1.87
2017-08-19T19:13:16.865Z,1.30
2017-08-19T19:15:44.342Z,1.33
2017-08-19T19:18:11.794Z,1.80
2017-08-19T19:20:39.265Z,1.37
2017-08-19T19:23:06.717Z,1.60
2017-08-19T19:25:34.196Z,1.10
2017-08-19T19:28:01.657Z,1.70
2017-08-19T19:30:29.114Z,1.33
2017-08-19T19:32:56.570Z,1.63
2017-08-19T19:35:24.062Z,1.60
2017-08-19T19:37:51.517Z,1.20
2017-08-19T19:40:18.993Z,1.30
2017-08-19T19:42:46.469Z,1.50
2017-08-19T19:45:13.914Z,1.37
2017-08-19T19:47:41.360Z,1.47
2017-08-19T19:50:08.818Z,1.40
2017-08-19T19:52:36.277Z,1.37
2017-08-19T19:55:03.737Z,1.50
2017-08-19T19:57:31.205Z,1.97
2017-08-19T19:59:58.658Z,1.37
2017-08-19T20:02:26.134Z,1.43
2017-08-19T20:04:53.583Z,1.60
2017-08-19T20:07:21.040Z,1.40
2017-08-19T20:09:48.484Z,1.47
2017-08-19T20:12:15.946Z,1.50
2017-08-19T20:14:43.412Z,1.67
2017-08-19T20:17:10.861Z,1.60
2017-08-19T20:19:38.316Z,1.57
2017-08-19T20:22:05.769Z,1.50
2017-08-19T20:24:33.226Z,1.50
2017-08-19T20:27:00.675Z,1.47
2017-08-19T20:29:28.138Z,1.60
2017-08-19T20:31:55.580Z,1.70
2017-08-19T20:34:23.042Z,1.30
2017-08-19T20:36:50.496Z,1.50
2017-08-19T20:39:17.965Z,1.40
2017-08-19T20:41:45.444Z,1.37
2017-08-19T20:44:12.900Z,1.67
2017-08-19T20:46:40.342Z,1.40
2017-08-19T20:49:07.797Z,1.63
2017-08-19T20:51:35.277Z,1.50
2017-08-19T20:54:02.735Z,1.33
2017-08-19T20:56:30.175Z,1.40
2017-08-19T20:58:57.661Z,1.43
2017-08-19T21:01:25.110Z,1.57
2017-08-19T21:03:52.594Z,1.40
2017-08-19T21:06:20.092Z,1.33
2017-08-19T21:08:47.568Z,1.40
2017-08-19T21:11:15.045Z,1.33
2017-08-19T21:13:42.491Z,1.40
2017-08-19T21:16:09.957Z,1.47
2017-08-19T21:18:37.385Z,1.63
2017-08-19T21:21:04.842Z,1.57
2017-08-19T21:23:32.298Z,1.40
2017-08-19T21:25:59.746Z,1.50
2017-08-19T21:28:27.207Z,1.50
2017-08-19T21:30:54.697Z,1.47
2017-08-19T21:33:22.137Z,1.57
2017-08-19T21:35:49.611Z,1.40
2017-08-19T21:38:17.061Z,1.30
2017-08-19T21:40:44.506Z,1.17
2017-08-19T21:43:11.965Z,1.40
2017-08-19T21:45:39.440Z,1.30
2017-08-19T21:48:06.902Z,1.33
2017-08-19T21:50:34.362Z,1.40
2017-08-19T21:53:01.801Z,1.20
2017-08-19T21:55:29.249Z,1.33
2017-08-19T21:57:56.705Z,1.37
2017-08-19T22:00:24.170Z,1.50
2017-08-19T22:02:51.622Z,1.43
2017-08-19T22:05:19.151Z,1.47
2017-08-19T22:07:46.621Z,1.20
2017-08-19T22:10:14.069Z,1.37
2017-08-19T22:12:41.530Z,1.60
2017-08-19T22:15:08.978Z,1.50
2017-08-19T22:17:36.446Z,1.27
2017-08-19T22:20:03.942Z,1.40
2017-08-19T22:22:31.417Z,1.80
2017-08-19T22:24:58.864Z,1.50
2017-08-19T22:27:26.315Z,1.50
2017-08-19T22:29:53.793Z,1.40
2017-08-19T22:32:21.258Z,1.33
2017-08-19T22:34:48.750Z,1.13
2017-08-19T22:37:16.206Z,1.30
2017-08-19T22:39:43.679Z,1.10
2017-08-19T22:42:11.170Z,1.40
2017-08-19T22:44:38.623Z,1.57
2017-08-19T22:47:06.081Z,1.33
2017-08-19T22:49:33.558Z,1.30
2017-08-19T22:52:01.053Z,1.43
2017-08-19T22:54:28.498Z,1.20
2017-08-19T22:56:55.969Z,1.37
2017-08-19T22:59:23.449Z,1.50
2017-08-19T23:01:50.889Z,1.40
2017-08-19T23:04:18.341Z,1.47
2017-08-19T23:06:45.801Z,1.30
2017-08-19T23:09:13.254Z,1.40
2017-08-19T23:11:40.725Z,1.50
2017-08-19T23:14:08.173Z,1.60
2017-08-19T23:16:35.646Z,1.33
2017-08-19T23:19:03.110Z,1.40
2017-08-19T23:21:30.586Z,1.63
2017-08-19T23:23:58.049Z,1.30
2017-08-19T23:26:25.500Z,1.50
2017-08-19T23:28:52.940Z,1.43
2017-08-19T23:31:20.398Z,1.50
2017-08-19T23:33:47.841Z,1.30
2017-08-19T23:36:15.318Z,1.30
2017-08-19T23:38:42.786Z,1.30
2017-08-19T23:41:10.229Z,1.70
2017-08-19T23:43:37.695Z,1.20
2017-08-19T23:46:05.163Z,1.30
2017-08-19T23:48:32.626Z,1.53
2017-08-19T23:51:00.078Z,1.30
2017-08-19T23:53:27.528Z,1.60
2017-08-19T23:55:55.762Z,1.60
2017-08-19T23:58:23.230Z,1.50
